ADDS METAR Data INFO
IDs: Format: Raw Decoded Include TAF

Data at: 0545 UTC 22 Nov 2017

KECS 220535Z AUTO 27007KT 10SM CLR M02/M05 A3019 RMK AO2
KECS 220515Z AUTO 00000KT 10SM CLR M02/M05 A3019 RMK AO2
KECS 220455Z AUTO 00000KT 10SM CLR M02/M05 A3020 RMK AO2
KECS 220435Z AUTO 00000KT 10SM CLR M02/M05 A3020 RMK AO2
KECS 220415Z AUTO 00000KT 10SM CLR M02/M06 A3022 RMK AO2
KECS 220355Z AUTO 00000KT 10SM CLR M03/M06 A3022 RMK AO2
KECS 220335Z AUTO 00000KT 10SM CLR M04/M07 A3021 RMK AO2
KECS 220315Z AUTO 00000KT 10SM CLR M03/M06 A3021 RMK AO2
KECS 220255Z AUTO 04003KT 10SM CLR M03/M06 A3021 RMK AO2
KECS 220235Z AUTO 00000KT 10SM CLR M03/M06 A3022 RMK AO2
KECS 220215Z AUTO 00000KT 10SM CLR M02/M06 A3022 RMK AO2
KECS 220155Z AUTO 00000KT 10SM CLR M02/M06 A3022 RMK AO2
KECS 220135Z AUTO 01004KT 10SM CLR M02/M06 A3022 RMK AO2
KECS 220115Z AUTO 01003KT 10SM CLR M03/M06 A3021 RMK AO2
KECS 220055Z AUTO 11003KT 10SM CLR M02/M06 A3022 RMK AO2
KECS 220035Z AUTO 14003KT 10SM CLR M02/M06 A3022 RMK AO2
KECS 220015Z AUTO 04005KT 10SM CLR M01/M06 A3023 RMK AO2
KECS 212355Z AUTO 00000KT 10SM CLR 00/M06 A3024 RMK AO2
KECS 212335Z AUTO 09006KT 10SM CLR 00/M06 A3024 RMK AO2
KECS 212315Z AUTO 10008KT 10SM CLR 01/M06 A3024 RMK AO2
KECS 212255Z AUTO 00000KT 10SM CLR 02/M06 A3025 RMK AO2
KECS 212235Z AUTO 09005KT 10SM CLR 02/M06 A3025 RMK AO2
KECS 212215Z AUTO 00000KT 10SM CLR 02/M06 A3026 RMK AO2
KECS 212155Z AUTO 00000KT 10SM CLR 02/M06 A3027 RMK AO2
KECS 212135Z AUTO 34004KT 10SM CLR 02/M06 A3027 RMK AO2
KECS 212115Z AUTO 30006KT 10SM CLR 02/M06 A3027 RMK AO2
KECS 212055Z AUTO 29008KT 10SM CLR 02/M06 A3028 RMK AO2
KECS 212035Z AUTO 29005KT 10SM CLR 01/M06 A3027 RMK AO2
KECS 212015Z AUTO 33006KT 10SM CLR 01/M06 A3028 RMK AO2
KECS 211955Z AUTO 33007KT 10SM CLR 01/M06 A3031 RMK AO2
KECS 211935Z AUTO 32008KT 10SM SCT023 00/M06 A3030 RMK AO2
KECS 211915Z AUTO 30012G16KT 10SM SCT023 01/M06 A3030 RMK AO2
KECS 211855Z AUTO 32009KT 10SM BKN023 00/M06 A3030 RMK AO2
KECS 211835Z AUTO 32008G15KT 10SM BKN023 00/M06 A3032 RMK AO2
KECS 211815Z AUTO 30012KT 10SM BKN025 00/M07 A3031 RMK AO2
KECS 211755Z AUTO 31011G14KT 10SM BKN025 00/M07 A3032 RMK AO2
KECS 211735Z AUTO 31010G14KT 10SM BKN025 00/M07 A3032 RMK AO2
KECS 211715Z AUTO 33010KT 10SM SCT023 SCT034 SCT065 00/M08 A3031 RMK AO2
KECS 211655Z AUTO 32011G15KT 10SM SCT034 SCT065 00/M08 A3030 RMK AO2
KECS 211635Z AUTO 31011KT 10SM BKN034 M01/M08 A3030 RMK AO2
KECS 211615Z AUTO 31013KT 10SM BKN034 M01/M08 A3029 RMK AO2
KECS 211555Z AUTO 32010KT 10SM SCT033 BKN042 M01/M08 A3028 RMK AO2
KECS 211535Z AUTO 31012KT 10SM OVC044 M02/M08 A3028 RMK AO2
KECS 211515Z AUTO 32011G14KT 10SM OVC044 M02/M07 A3028 RMK AO2
KECS 211455Z AUTO 32013G17KT 10SM OVC044 M02/M07 A3027 RMK AO2
KECS 211435Z AUTO 31010G15KT 10SM OVC046 M03/M07 A3025 RMK AO2
KECS 211415Z AUTO 30009KT 10SM SCT033 OVC046 M03/M07 A3024 RMK AO2
KECS 211355Z AUTO 32011KT 10SM BKN035 OVC046 M03/M07 A3023 RMK AO2
KECS 211335Z AUTO 31011KT 10SM SCT038 OVC046 M03/M07 A3022 RMK AO2
KECS 211315Z AUTO 31011G16KT 10SM SCT038 OVC044 M03/M07 A3020 RMK AO2
KECS 211255Z AUTO 31012G17KT 10SM SCT034 OVC042 M02/M06 A3020 RMK AO2
KECS 211235Z AUTO 33009G16KT 10SM OVC037 M02/M07 A3019 RMK AO2
KECS 211215Z AUTO 32009KT 10SM OVC037 M02/M06 A3017 RMK AO2
KECS 211155Z AUTO 32010KT 10SM OVC037 M02/M06 A3017 RMK AO2
KECS 211135Z AUTO 33008G16KT 10SM SCT039 M02/M07 A3015 RMK AO2
KECS 211115Z AUTO 33010G16KT 10SM CLR M02/M07 A3013 RMK AO2
KECS 211055Z AUTO 33012G19KT 10SM SCT065 M01/M07 A3011 RMK AO2
KECS 211035Z AUTO 33015G20KT 10SM SCT055 SCT075 M01/M07 A3009 RMK AO2
KECS 211015Z AUTO 33015G22KT 10SM BKN055 00/M06 A3007 RMK AO2
KECS 210955Z AUTO 32010G21KT 10SM BKN055 00/M05 A3005 RMK AO2
KECS 210935Z AUTO 32011KT 10SM SCT055 SCT095 00/M05 A3002 RMK AO2
KECS 210915Z AUTO 32009KT 10SM CLR 00/M04 A3000 RMK AO2
KECS 210855Z AUTO 33009KT 10SM SCT026 01/M03 A2999 RMK AO2
KECS 210835Z AUTO 35013KT 10SM BKN026 BKN034 02/M02 A2997 RMK AO2
KECS 210815Z AUTO 31007KT 10SM BKN026 BKN080 02/00 A2995 RMK AO2
KECS 210755Z AUTO 32009KT 10SM SCT075 SCT080 03/00 A2992 RMK AO2
KECS 210735Z AUTO 33012KT 10SM -DZ CLR 05/00 A2989 RMK AO2
KECS 210715Z AUTO 34013G17KT 10SM CLR 05/00 A2987 RMK AO2
KECS 210655Z AUTO 35014G18KT 10SM SCT012 SCT060 SCT080 05/00 A2986 RMK AO2
KECS 210635Z AUTO 36011G20KT 10SM -RA SCT008 SCT012 SCT032 05/M01 A2985 RMK AO2
KECS 210615Z AUTO 35010KT 10SM -DZ SCT010 SCT014 SCT029 05/M03 A2985 RMK AO2
KECS 210555Z AUTO 33004KT 10SM CLR 04/M05 A2983 RMK AO2
KECS 210535Z AUTO 34004KT 10SM SCT090 02/M05 A2980 RMK AO2
KECS 210515Z AUTO 34008KT 10SM CLR 02/M05 A2979 RMK AO2
KECS 210455Z AUTO 01004KT 10SM CLR 01/M05 A2978 RMK AO2
KECS 210435Z AUTO 00000KT 10SM CLR 01/M05 A2977 RMK AO2
KECS 210415Z AUTO 01007KT 10SM CLR 02/M05 A2976 RMK AO2
KECS 210355Z AUTO 01010G14KT 10SM SCT100 02/M05 A2976 RMK AO2
KECS 210335Z AUTO 01009KT 10SM SCT100 02/M05 A2976 RMK AO2
KECS 210315Z AUTO 36008KT 10SM CLR 03/M05 A2976 RMK AO2
KECS 210255Z AUTO 36005KT 10SM CLR 03/M05 A2976 RMK AO2
KECS 210235Z AUTO 36007KT 10SM CLR 02/M06 A2975 RMK AO2
KECS 210215Z AUTO 36006KT 10SM CLR 02/M06 A2974 RMK AO2
KECS 210155Z AUTO 01006KT 10SM CLR 03/M06 A2974 RMK AO2
KECS 210135Z AUTO 36006KT 10SM CLR 03/M06 A2975 RMK AO2
KECS 210115Z AUTO 36009KT 10SM CLR 03/M06 A2975 RMK AO2
KECS 210055Z AUTO 36008KT 10SM CLR 04/M06 A2975 RMK AO2
KECS 210035Z AUTO 33007KT 10SM CLR 04/M06 A2975 RMK AO2
KECS 210015Z AUTO 34006KT 10SM CLR 06/M07 A2976 RMK AO2
KECS 202355Z AUTO 31004KT 10SM CLR 07/M07 A2976 RMK AO2
KECS 202335Z AUTO 33004KT 10SM CLR 07/M07 A2976 RMK AO2
KECS 202315Z AUTO 27003KT 10SM CLR 07/M08 A2975 RMK AO2
KECS 202255Z AUTO 30007KT 10SM CLR 07/M07 A2975 RMK AO2
KECS 202235Z AUTO 27003KT 10SM CLR 09/M07 A2974 RMK AO2
KECS 202215Z AUTO 32006KT 10SM CLR 09/M07 A2973 RMK AO2
KECS 202155Z AUTO 32006KT 10SM CLR 09/M07 A2973 RMK AO2
KECS 202135Z AUTO 29010KT 10SM CLR 11/M08 A2972 RMK AO2
KECS 202115Z AUTO 31009G15KT 10SM CLR 12/M08 A2972 RMK AO2
KECS 202055Z AUTO 32006KT 10SM CLR 12/M09 A2971 RMK AO2
KECS 202035Z AUTO 34004KT 10SM CLR 12/M10 A2970 RMK AO2
KECS 202015Z AUTO 31005KT 10SM CLR 12/M10 A2971 RMK AO2
KECS 201955Z AUTO 33007KT 10SM CLR 12/M11 A2971 RMK AO2
KECS 201935Z AUTO 36009KT 302V012 10SM CLR 12/M11 A2970 RMK AO2
KECS 201915Z AUTO 03004KT 10SM CLR 11/M10 A2971 RMK AO2
KECS 201855Z AUTO 02006KT 10SM CLR 11/M11 A2971 RMK AO2
KECS 201835Z AUTO 00000KT 10SM CLR 11/M11 A2971 RMK AO2
KECS 201815Z AUTO 35003KT 10SM CLR 11/M11 A2970 RMK AO2
KECS 201755Z AUTO 33005KT 10SM CLR 10/M12 A2970 RMK AO2